createdAt,value
2018-09-26T00:00:45.393Z,3.20
2018-09-26T00:03:18.807Z,3.37
2018-09-26T00:05:48.572Z,7.37
2018-09-26T00:08:17.880Z,2.73
2018-09-26T00:10:47.255Z,3.10
2018-09-26T00:13:16.432Z,3.40
2018-09-26T00:15:45.833Z,3.37
2018-09-26T00:18:14.820Z,3.37
2018-09-26T00:20:43.816Z,2.97
2018-09-26T00:23:12.738Z,3.97
2018-09-26T00:25:41.644Z,5.30
2018-09-26T00:28:10.474Z,2.67
2018-09-26T00:30:39.441Z,4.13
2018-09-26T00:33:08.454Z,5.60
2018-09-26T00:35:37.334Z,3.20
2018-09-26T00:38:06.253Z,3.43
2018-09-26T00:40:35.124Z,3.47
2018-09-26T00:43:04.095Z,2.80
2018-09-26T00:45:32.973Z,2.13
2018-09-26T00:48:01.833Z,3.43
2018-09-26T00:50:30.792Z,2.80
2018-09-26T00:52:59.599Z,4.17
2018-09-26T00:55:28.423Z,2.50
2018-09-26T00:57:57.425Z,7.40
2018-09-26T01:00:26.287Z,3.10
2018-09-26T01:02:55.324Z,2.23
2018-09-26T01:05:24.124Z,2.30
2018-09-26T01:07:53.122Z,2.97
2018-09-26T01:10:22.032Z,3.13
2018-09-26T01:12:51.021Z,2.47
2018-09-26T01:15:19.847Z,4.03
2018-09-26T01:17:48.662Z,3.30
2018-09-26T01:20:17.457Z,3.97
2018-09-26T01:22:46.409Z,6.67
2018-09-26T01:25:15.347Z,2.67
2018-09-26T01:27:44.222Z,3.20
2018-09-26T01:30:13.178Z,3.63
2018-09-26T01:32:41.981Z,2.27
2018-09-26T01:35:10.771Z,3.57
2018-09-26T01:37:39.649Z,1.70
2018-09-26T01:40:08.594Z,1.80
2018-09-26T01:42:37.452Z,1.87
2018-09-26T01:45:06.868Z,4.07
2018-09-26T01:47:35.809Z,2.27
2018-09-26T01:50:04.773Z,2.77
2018-09-26T01:52:33.690Z,4.23
2018-09-26T01:55:02.513Z,2.70
2018-09-26T01:57:31.397Z,3.47
2018-09-26T02:00:00.188Z,2.63
2018-09-26T02:02:29.056Z,2.37
2018-09-26T02:04:57.856Z,4.13
2018-09-26T02:07:26.689Z,7.13
2018-09-26T02:09:55.503Z,2.30
2018-09-26T02:12:24.420Z,5.33
2018-09-26T02:14:53.545Z,3.27
2018-09-26T02:17:22.490Z,3.77
2018-09-26T02:19:51.288Z,5.63
2018-09-26T02:22:20.108Z,2.70
2018-09-26T02:24:49.031Z,2.27
2018-09-26T02:27:17.936Z,2.47
2018-09-26T02:29:46.705Z,2.30
2018-09-26T02:32:15.623Z,4.20
2018-09-26T02:34:44.440Z,3.60
2018-09-26T02:37:13.228Z,2.87
2018-09-26T02:39:42.011Z,1.93
2018-09-26T02:42:10.809Z,2.17
2018-09-26T02:44:39.664Z,2.33
2018-09-26T02:47:08.546Z,1.93
2018-09-26T02:49:37.364Z,2.83
2018-09-26T02:52:06.236Z,2.23
2018-09-26T02:54:35.028Z,4.17
2018-09-26T02:57:03.857Z,3.33
2018-09-26T02:59:32.741Z,3.33
2018-09-26T03:02:01.662Z,2.53
2018-09-26T03:04:30.557Z,5.63
2018-09-26T03:06:59.415Z,2.00
2018-09-26T03:09:28.239Z,2.17
2018-09-26T03:11:57.299Z,3.43
2018-09-26T03:14:26.206Z,2.30
2018-09-26T03:16:55.062Z,3.90
2018-09-26T03:19:24.010Z,2.20
2018-09-26T03:21:52.923Z,4.07
2018-09-26T03:24:21.735Z,2.20
2018-09-26T03:26:50.625Z,2.20
2018-09-26T03:29:19.503Z,3.60
2018-09-26T03:31:48.425Z,2.07
2018-09-26T03:34:17.284Z,3.07
2018-09-26T03:36:46.133Z,2.37
2018-09-26T03:39:15.074Z,3.20
2018-09-26T03:41:44.095Z,3.43
2018-09-26T03:44:12.964Z,2.20
2018-09-26T03:46:41.958Z,3.70
2018-09-26T03:49:10.732Z,5.37
2018-09-26T03:51:39.604Z,4.80
2018-09-26T03:54:08.549Z,7.70
2018-09-26T03:56:37.381Z,4.63
2018-09-26T03:59:06.631Z,5.87
2018-09-26T04:01:35.480Z,5.00
2018-09-26T04:04:04.329Z,5.13
2018-09-26T04:06:39.733Z,4.60
2018-09-26T04:09:09.459Z,4.47
2018-09-26T04:11:38.571Z,5.30
2018-09-26T04:14:07.455Z,5.30
2018-09-26T04:16:36.270Z,3.90
2018-09-26T04:19:05.057Z,4.93
2018-09-26T04:21:33.924Z,4.77
2018-09-26T04:24:02.795Z,2.90
2018-09-26T04:26:32.640Z,6.30
2018-09-26T04:29:01.488Z,3.97
2018-09-26T04:31:30.313Z,9.47
2018-09-26T04:33:59.242Z,6.73
2018-09-26T04:36:28.285Z,7.07
2018-09-26T04:38:57.253Z,5.23
2018-09-26T04:41:26.172Z,5.60
2018-09-26T04:43:55.098Z,5.30
2018-09-26T04:46:23.945Z,7.60
2018-09-26T04:48:53.060Z,15.37
2018-09-26T04:51:21.953Z,7.33
2018-09-26T04:53:51.317Z,5.50
2018-09-26T04:56:20.318Z,6.17
2018-09-26T04:58:49.292Z,4.90
2018-09-26T05:01:18.111Z,8.30
2018-09-26T05:03:46.968Z,3.57
2018-09-26T05:06:15.785Z,8.13
2018-09-26T05:08:44.594Z,9.67
2018-09-26T05:11:13.483Z,5.30
2018-09-26T05:13:42.319Z,3.33
2018-09-26T05:16:11.117Z,5.43
2018-09-26T05:18:39.945Z,5.20
2018-09-26T05:21:09.304Z,10.23
2018-09-26T05:23:38.205Z,8.40
2018-09-26T05:26:07.157Z,4.13
2018-09-26T05:28:36.072Z,6.00
2018-09-26T05:31:04.919Z,7.50
2018-09-26T05:33:33.751Z,7.77
2018-09-26T05:36:02.632Z,5.60
2018-09-26T05:38:31.489Z,5.00
2018-09-26T05:41:00.492Z,5.17
2018-09-26T05:43:29.317Z,7.90
2018-09-26T05:45:58.111Z,5.77
2018-09-26T05:48:26.926Z,8.90
2018-09-26T05:50:55.966Z,6.33
2018-09-26T05:53:24.928Z,9.63
2018-09-26T05:55:53.929Z,5.50
2018-09-26T05:58:22.757Z,5.47
2018-09-26T06:00:51.555Z,5.53
2018-09-26T06:03:20.373Z,10.27
2018-09-26T06:05:49.149Z,7.03
2018-09-26T06:08:18.093Z,8.90
2018-09-26T06:10:46.977Z,6.33
2018-09-26T06:13:16.260Z,6.87
2018-09-26T06:15:45.245Z,7.83
2018-09-26T06:18:14.074Z,5.10
2018-09-26T06:20:42.889Z,6.30
2018-09-26T06:23:11.764Z,7.57
2018-09-26T06:25:40.661Z,6.50
2018-09-26T06:28:09.467Z,5.50
2018-09-26T06:30:38.433Z,4.93
2018-09-26T06:33:07.460Z,6.80
2018-09-26T06:35:36.345Z,4.30
2018-09-26T06:38:05.192Z,4.13
2018-09-26T06:40:34.181Z,7.33
2018-09-26T06:43:03.180Z,4.70
2018-09-26T06:45:32.092Z,4.63
2018-09-26T06:48:00.944Z,5.87
2018-09-26T06:50:29.856Z,5.37
2018-09-26T06:52:58.636Z,5.13
2018-09-26T06:55:27.439Z,5.80
2018-09-26T06:57:56.392Z,4.57
2018-09-26T07:00:25.809Z,4.90
2018-09-26T07:02:54.830Z,4.07
2018-09-26T07:05:25.433Z,5.17
2018-09-26T07:07:54.208Z,4.73
2018-09-26T07:10:23.194Z,3.60
2018-09-26T07:12:52.316Z,3.93
2018-09-26T07:15:21.286Z,4.87
2018-09-26T07:17:50.156Z,5.47
2018-09-26T07:20:19.076Z,3.43
2018-09-26T07:22:48.266Z,5.43
2018-09-26T07:25:17.889Z,5.90
2018-09-26T07:27:46.747Z,4.53
2018-09-26T07:30:17.249Z,5.17
2018-09-26T07:32:46.068Z,8.30
2018-09-26T07:35:14.908Z,3.37
2018-09-26T07:37:43.840Z,4.57
2018-09-26T07:40:12.884Z,5.80
2018-09-26T07:42:41.947Z,5.23
2018-09-26T07:45:10.777Z,4.33
2018-09-26T07:47:39.585Z,7.67
2018-09-26T07:50:08.568Z,10.10
2018-09-26T07:52:37.453Z,4.17
2018-09-26T07:55:06.311Z,6.87
2018-09-26T07:57:36.195Z,5.83
2018-09-26T08:00:08.257Z,5.63
2018-09-26T08:02:37.321Z,6.87
2018-09-26T08:05:06.823Z,7.03
2018-09-26T08:07:35.723Z,4.10
2018-09-26T08:10:04.556Z,5.43
2018-09-26T08:12:33.601Z,4.07
2018-09-26T08:15:02.486Z,4.37
2018-09-26T08:17:31.372Z,3.97
2018-09-26T08:20:00.310Z,4.53
2018-09-26T08:22:29.224Z,7.83
2018-09-26T08:24:58.124Z,3.73
2018-09-26T08:27:27.072Z,3.77
2018-09-26T08:29:55.953Z,2.93
2018-09-26T08:32:25.055Z,3.40
2018-09-26T08:34:54.016Z,8.53
2018-09-26T08:37:22.919Z,3.53
2018-09-26T08:39:51.940Z,3.43
2018-09-26T08:42:20.787Z,2.73
2018-09-26T08:44:49.644Z,2.90
2018-09-26T08:47:18.569Z,2.40
2018-09-26T08:49:47.581Z,2.40
2018-09-26T08:52:16.836Z,3.57
2018-09-26T08:54:45.760Z,5.57
2018-09-26T08:57:14.685Z,2.70
2018-09-26T08:59:43.661Z,4.27
2018-09-26T09:02:12.628Z,10.30
2018-09-26T09:04:41.847Z,6.37
2018-09-26T09:07:10.668Z,5.30
2018-09-26T09:09:39.657Z,1.90
2018-09-26T09:12:08.664Z,4.40
2018-09-26T09:14:37.782Z,3.10
2018-09-26T09:17:07.323Z,2.20
2018-09-26T09:19:36.135Z,3.43
2018-09-26T09:22:05.111Z,2.10
2018-09-26T09:24:33.987Z,6.40
2018-09-26T09:27:03.142Z,4.20
2018-09-26T09:29:32.329Z,2.40
2018-09-26T09:32:01.164Z,2.90
2018-09-26T09:34:30.053Z,2.63
2018-09-26T09:36:58.856Z,3.40
2018-09-26T09:39:27.861Z,1.87
2018-09-26T09:41:56.781Z,3.00
2018-09-26T09:44:25.738Z,2.90
2018-09-26T09:46:54.827Z,1.97
2018-09-26T09:49:23.883Z,1.93
2018-09-26T09:51:52.750Z,3.80
2018-09-26T09:54:21.665Z,5.07
2018-09-26T09:56:50.598Z,3.50
2018-09-26T09:59:19.484Z,3.90
2018-09-26T10:01:48.307Z,2.23
2018-09-26T10:04:17.137Z,2.97
2018-09-26T10:06:45.986Z,1.93
2018-09-26T10:09:14.823Z,1.70
2018-09-26T10:11:43.758Z,2.40
2018-09-26T10:14:12.611Z,1.50
2018-09-26T10:16:41.508Z,1.53
2018-09-26T10:19:10.313Z,5.67
2018-09-26T10:21:39.100Z,1.80
2018-09-26T10:24:07.686Z,2.13
2018-09-26T10:26:36.593Z,1.37
2018-09-26T10:29:05.483Z,2.20
2018-09-26T10:31:34.363Z,1.57
2018-09-26T10:34:03.123Z,1.80
2018-09-26T10:36:32.028Z,2.23
2018-09-26T10:39:00.989Z,4.17
2018-09-26T10:41:29.876Z,4.23
2018-09-26T10:43:59.362Z,1.40
2018-09-26T10:46:28.454Z,2.73
2018-09-26T10:48:57.557Z,5.73
2018-09-26T10:51:26.400Z,1.63
2018-09-26T10:53:55.309Z,2.03
2018-09-26T10:56:24.350Z,1.63
2018-09-26T10:58:53.337Z,2.80
2018-09-26T11:01:22.167Z,4.20
2018-09-26T11:03:50.960Z,2.57
2018-09-26T11:06:19.815Z,1.57
2018-09-26T11:08:48.876Z,1.90
2018-09-26T11:11:17.768Z,5.37
2018-09-26T11:13:46.767Z,4.77
2018-09-26T11:16:15.606Z,4.73
2018-09-26T11:18:44.533Z,4.00
2018-09-26T11:21:13.646Z,2.77
2018-09-26T11:23:42.720Z,2.07
2018-09-26T11:26:11.551Z,1.37
2018-09-26T11:28:40.512Z,1.70
2018-09-26T11:31:09.601Z,2.73
2018-09-26T11:33:38.519Z,2.70
2018-09-26T11:36:07.451Z,3.00
2018-09-26T11:38:36.388Z,2.50
2018-09-26T11:41:05.320Z,3.57
2018-09-26T11:43:34.141Z,3.70
2018-09-26T11:46:02.954Z,2.50
2018-09-26T11:48:31.832Z,2.13
2018-09-26T11:51:00.743Z,2.33
2018-09-26T11:53:29.712Z,2.30
2018-09-26T11:55:58.614Z,4.93
2018-09-26T11:58:27.658Z,3.40
2018-09-26T12:00:56.714Z,3.13
2018-09-26T12:03:25.524Z,4.70
2018-09-26T12:05:54.449Z,2.97
2018-09-26T12:08:23.439Z,3.30
2018-09-26T12:10:52.441Z,2.40
2018-09-26T12:13:21.260Z,3.43
2018-09-26T12:15:50.148Z,1.27
2018-09-26T12:18:19.153Z,2.60
2018-09-26T12:20:48.239Z,3.60
2018-09-26T12:23:17.044Z,3.30
2018-09-26T12:25:45.981Z,1.57
2018-09-26T12:28:14.815Z,2.57
2018-09-26T12:30:43.828Z,2.20
2018-09-26T12:33:12.817Z,3.43
2018-09-26T12:35:41.793Z,3.80
2018-09-26T12:38:10.638Z,5.53
2018-09-26T12:40:39.491Z,2.90
2018-09-26T12:43:08.500Z,1.90
2018-09-26T12:45:37.366Z,3.20
2018-09-26T12:48:06.707Z,1.43
2018-09-26T12:50:35.894Z,1.80
2018-09-26T12:53:04.793Z,5.50
2018-09-26T12:55:33.678Z,2.90
2018-09-26T12:58:02.554Z,6.53
2018-09-26T13:00:31.946Z,5.40
2018-09-26T13:03:01.153Z,3.13
2018-09-26T13:05:30.055Z,3.80
2018-09-26T13:07:58.889Z,3.20
2018-09-26T13:10:27.746Z,1.40
2018-09-26T13:12:56.718Z,2.93
2018-09-26T13:15:25.542Z,1.60
2018-09-26T13:17:54.356Z,1.50
2018-09-26T13:20:23.699Z,1.63
2018-09-26T13:22:52.699Z,1.60
2018-09-26T13:25:21.805Z,2.87
2018-09-26T13:27:50.891Z,2.43
2018-09-26T13:30:19.747Z,1.70
2018-09-26T13:32:48.872Z,5.97
2018-09-26T13:35:17.689Z,1.50
2018-09-26T13:37:46.580Z,2.87
2018-09-26T13:40:15.528Z,3.47
2018-09-26T13:42:44.689Z,1.63
2018-09-26T13:45:13.634Z,2.13
2018-09-26T13:47:42.587Z,4.33
2018-09-26T13:50:11.537Z,1.20
2018-09-26T13:52:40.576Z,2.00
2018-09-26T13:55:09.345Z,4.87
2018-09-26T13:57:38.250Z,1.20
2018-09-26T14:00:07.861Z,4.00
2018-09-26T14:02:36.942Z,3.77
2018-09-26T14:05:06.253Z,2.50
2018-09-26T14:07:35.096Z,2.57
2018-09-26T14:10:03.962Z,1.57
2018-09-26T14:12:32.847Z,4.67
2018-09-26T14:15:01.835Z,2.13
2018-09-26T14:17:30.682Z,1.50
2018-09-26T14:19:59.480Z,2.00
2018-09-26T14:22:28.574Z,1.87
2018-09-26T14:24:57.563Z,1.80
2018-09-26T14:27:26.467Z,1.50
2018-09-26T14:29:55.545Z,1.30
2018-09-26T14:32:24.495Z,2.43
2018-09-26T14:34:53.509Z,1.93
2018-09-26T14:37:22.279Z,4.70
2018-09-26T14:39:51.184Z,2.17
2018-09-26T14:42:20.049Z,2.40
2018-09-26T14:44:48.873Z,2.47
2018-09-26T14:47:17.765Z,1.60
2018-09-26T14:49:46.727Z,1.13
2018-09-26T14:52:15.607Z,4.33
2018-09-26T14:54:44.423Z,2.23
2018-09-26T14:57:13.316Z,1.93
2018-09-26T14:59:42.525Z,2.77
2018-09-26T15:02:11.472Z,1.17
2018-09-26T15:04:40.674Z,1.63
2018-09-26T15:07:09.723Z,2.30
2018-09-26T15:09:38.652Z,1.50
2018-09-26T15:12:07.714Z,1.37
2018-09-26T15:14:36.820Z,1.30
2018-09-26T15:17:06.021Z,4.03
2018-09-26T15:19:34.800Z,2.30
2018-09-26T15:22:03.584Z,1.77
2018-09-26T15:24:32.446Z,1.50
2018-09-26T15:27:01.391Z,3.23
2018-09-26T15:29:30.320Z,1.30
2018-09-26T15:31:59.092Z,1.87
2018-09-26T15:34:27.969Z,2.80
2018-09-26T15:36:56.795Z,1.80
2018-09-26T15:39:25.539Z,3.23
2018-09-26T15:41:54.357Z,3.43
2018-09-26T15:44:23.355Z,2.20
2018-09-26T15:46:52.345Z,1.90
2018-09-26T15:49:21.161Z,1.40
2018-09-26T15:51:50.012Z,1.63
2018-09-26T15:54:18.825Z,1.83
2018-09-26T15:56:47.869Z,1.30
2018-09-26T15:59:16.663Z,4.30
2018-09-26T16:01:45.537Z,1.83
2018-09-26T16:04:15.754Z,2.80
2018-09-26T16:06:45.605Z,4.93
2018-09-26T16:09:17.280Z,2.40
2018-09-26T16:11:46.104Z,2.90
2018-09-26T16:14:15.047Z,3.37
2018-09-26T16:16:44.073Z,4.43
2018-09-26T16:19:12.997Z,1.50
2018-09-26T16:21:42.084Z,1.70
2018-09-26T16:24:11.022Z,1.80
2018-09-26T16:26:40.096Z,3.67
2018-09-26T16:29:09.043Z,4.23
2018-09-26T16:31:37.966Z,2.20
2018-09-26T16:34:07.028Z,1.53
2018-09-26T16:36:35.890Z,3.20
2018-09-26T16:39:06.593Z,2.17
2018-09-26T16:41:36.547Z,2.53
2018-09-26T16:44:05.511Z,4.03
2018-09-26T16:46:34.717Z,1.70
2018-09-26T16:49:03.603Z,1.50
2018-09-26T16:51:32.408Z,2.70
2018-09-26T16:54:01.227Z,2.80
2018-09-26T16:56:30.144Z,7.23
2018-09-26T16:58:59.441Z,7.23
2018-09-26T17:01:28.315Z,2.13
2018-09-26T17:03:57.116Z,4.63
2018-09-26T17:06:25.970Z,4.63
2018-09-26T17:08:55.010Z,4.10
2018-09-26T17:11:23.856Z,3.73
2018-09-26T17:13:52.906Z,2.33
2018-09-26T17:16:21.967Z,2.20
2018-09-26T17:18:50.881Z,3.70
2018-09-26T17:21:19.864Z,3.93
2018-09-26T17:23:48.958Z,5.07
2018-09-26T17:26:17.996Z,5.30
2018-09-26T17:28:47.086Z,4.73
2018-09-26T17:31:16.138Z,4.93
2018-09-26T17:33:45.085Z,4.53
2018-09-26T17:36:13.957Z,4.13
2018-09-26T17:38:43.266Z,4.43
2018-09-26T17:41:12.068Z,4.27
2018-09-26T17:43:40.956Z,7.17
2018-09-26T17:46:09.997Z,4.87
2018-09-26T17:48:38.913Z,4.30
2018-09-26T17:51:07.796Z,4.03
2018-09-26T17:53:37.204Z,6.23
2018-09-26T17:56:05.987Z,5.00
2018-09-26T17:58:34.978Z,6.13
2018-09-26T18:01:03.808Z,5.77
2018-09-26T18:03:32.557Z,5.20
2018-09-26T18:06:01.430Z,5.20
2018-09-26T18:08:30.369Z,7.60
2018-09-26T18:10:59.369Z,5.90
2018-09-26T18:13:28.317Z,10.90
2018-09-26T18:15:57.445Z,5.30
2018-09-26T18:18:33.041Z,7.20
2018-09-26T18:21:01.876Z,6.70
2018-09-26T18:23:30.749Z,10.03
2018-09-26T18:25:59.610Z,6.17
2018-09-26T18:28:28.466Z,5.70
2018-09-26T18:30:57.353Z,5.20
2018-09-26T18:33:26.143Z,8.30
2018-09-26T18:35:55.015Z,8.63
2018-09-26T18:38:23.859Z,8.07
2018-09-26T18:40:52.705Z,9.83
2018-09-26T18:43:21.472Z,8.40
2018-09-26T18:45:50.764Z,11.07
2018-09-26T18:48:19.737Z,13.60
2018-09-26T18:50:48.568Z,13.13
2018-09-26T18:53:17.359Z,10.57
2018-09-26T18:55:46.526Z,6.47
2018-09-26T18:58:15.316Z,7.30
2018-09-26T19:00:44.238Z,12.87
2018-09-26T19:03:13.709Z,7.10
2018-09-26T19:05:42.537Z,7.40
2018-09-26T19:08:11.430Z,7.60
2018-09-26T19:10:40.283Z,5.63
2018-09-26T19:13:09.170Z,7.90
2018-09-26T19:15:38.062Z,7.27
2018-09-26T19:18:06.898Z,6.37
2018-09-26T19:20:35.748Z,12.63
2018-09-26T19:23:04.584Z,12.90
2018-09-26T19:25:33.364Z,12.87
2018-09-26T19:28:02.221Z,13.10
2018-09-26T19:30:31.282Z,11.27
2018-09-26T19:33:00.239Z,13.00
2018-09-26T19:35:29.103Z,7.80
2018-09-26T19:37:57.985Z,10.47
2018-09-26T19:40:26.915Z,11.27
2018-09-26T19:42:55.773Z,12.00
2018-09-26T19:45:24.667Z,12.00
2018-09-26T19:47:53.821Z,9.60
2018-09-26T19:50:22.648Z,7.50
2018-09-26T19:52:51.839Z,9.13
2018-09-26T19:55:20.649Z,6.13
2018-09-26T19:57:49.760Z,5.70
2018-09-26T20:00:18.568Z,6.13
2018-09-26T20:02:47.453Z,8.70
2018-09-26T20:05:16.434Z,6.57
2018-09-26T20:07:45.257Z,8.67
2018-09-26T20:10:14.075Z,10.63
2018-09-26T20:12:43.174Z,9.83
2018-09-26T20:15:12.084Z,10.10
2018-09-26T20:17:40.941Z,10.00
2018-09-26T20:20:09.887Z,8.90
2018-09-26T20:22:38.717Z,15.80
2018-09-26T20:25:07.726Z,11.20
2018-09-26T20:27:36.801Z,9.03
2018-09-26T20:30:07.164Z,12.47
2018-09-26T20:32:35.928Z,10.20
2018-09-26T20:35:05.054Z,7.80
2018-09-26T20:37:34.123Z,10.70
2018-09-26T20:40:02.965Z,7.87
2018-09-26T20:42:31.825Z,10.70
2018-09-26T20:45:00.949Z,11.87
2018-09-26T20:47:30.067Z,10.27
2018-09-26T20:49:58.865Z,8.43
2018-09-26T20:52:27.654Z,9.73
2018-09-26T20:54:56.495Z,7.13
2018-09-26T20:57:25.300Z,9.63
2018-09-26T20:59:54.173Z,10.53
2018-09-26T21:02:23.084Z,10.43
2018-09-26T21:04:51.904Z,11.17
2018-09-26T21:07:20.766Z,11.23
2018-09-26T21:09:49.575Z,5.50
2018-09-26T21:12:18.402Z,9.70
2018-09-26T21:14:47.266Z,11.50
2018-09-26T21:17:16.205Z,8.53
2018-09-26T21:19:45.129Z,6.20
2018-09-26T21:22:14.063Z,8.43
2018-09-26T21:24:42.876Z,8.70
2018-09-26T21:27:11.715Z,8.43
2018-09-26T21:29:40.483Z,10.73
2018-09-26T21:32:09.299Z,9.70
2018-09-26T21:34:38.192Z,9.13
2018-09-26T21:37:06.971Z,12.83
2018-09-26T21:39:36.044Z,9.60
2018-09-26T21:42:04.935Z,7.47
2018-09-26T21:44:33.741Z,7.70
2018-09-26T21:47:02.575Z,5.50
2018-09-26T21:49:31.392Z,8.87
2018-09-26T21:52:00.288Z,7.90
2018-09-26T21:54:29.193Z,7.13
2018-09-26T21:56:58.044Z,8.60
2018-09-26T21:59:26.877Z,12.93
2018-09-26T22:01:55.680Z,12.40
2018-09-26T22:04:24.520Z,10.37
2018-09-26T22:06:53.587Z,6.77
2018-09-26T22:09:22.351Z,7.17
2018-09-26T22:11:51.207Z,8.30
2018-09-26T22:14:20.128Z,10.47
2018-09-26T22:16:48.931Z,9.03
2018-09-26T22:19:17.824Z,8.60
2018-09-26T22:21:53.247Z,7.60
2018-09-26T22:24:22.261Z,6.97
2018-09-26T22:26:51.039Z,9.60
2018-09-26T22:29:19.884Z,8.57
2018-09-26T22:31:48.904Z,8.53
2018-09-26T22:34:17.693Z,8.80
2018-09-26T22:36:46.587Z,8.40
2018-09-26T22:39:15.465Z,7.27
2018-09-26T22:41:44.220Z,7.33
2018-09-26T22:44:13.064Z,4.87
2018-09-26T22:46:41.848Z,7.10
2018-09-26T22:49:10.579Z,8.83
2018-09-26T22:51:39.431Z,6.23
2018-09-26T22:54:08.193Z,7.70
2018-09-26T22:56:36.952Z,6.53
2018-09-26T22:59:05.891Z,5.90
2018-09-26T23:01:34.676Z,6.50
2018-09-26T23:04:03.542Z,7.67
2018-09-26T23:06:32.440Z,8.47
2018-09-26T23:09:01.332Z,6.60
2018-09-26T23:11:30.432Z,5.70
2018-09-26T23:13:59.292Z,8.03
2018-09-26T23:16:28.152Z,7.50
2018-09-26T23:18:57.035Z,7.93
2018-09-26T23:21:25.888Z,6.63
2018-09-26T23:23:54.902Z,8.17
2018-09-26T23:26:23.780Z,6.80
2018-09-26T23:28:52.676Z,6.73
2018-09-26T23:31:21.619Z,5.77
2018-09-26T23:33:50.757Z,12.80
2018-09-26T23:36:19.520Z,9.50
2018-09-26T23:38:48.268Z,7.63
2018-09-26T23:41:17.177Z,11.80
2018-09-26T23:43:45.992Z,7.50
2018-09-26T23:46:14.804Z,8.83
2018-09-26T23:48:43.823Z,8.33
2018-09-26T23:51:12.630Z,8.03
2018-09-26T23:53:41.472Z,7.73
2018-09-26T23:56:10.323Z,7.23
2018-09-26T23:58:39.189Z,11.00
